Time;durP1;ratioP1;P1;durP2;ratioP2;P2;SDS_P1;SDS_P2;PMS_P1;PMS_P2;Temp;Humidity;BMP_temperature;BMP_pressure;BME280_temperature;BME280_humidity;BME280_pressure;Samples;Min_cycle;Max_cycle;Signal;HPM_P1;HPM_P2
2021/08/31 00:01:18;;;;;;;15.73;11.27;;;14.40;92.40;;;;;;5076074;28;20095;-76
2021/08/31 00:03:44;;;;;;;17.88;13.35;;;14.40;92.40;;;;;;5075827;28;20028;-76
2021/08/31 00:06:10;;;;;;;19.70;14.68;;;14.40;92.20;;;;;;5075966;28;20028;-76
2021/08/31 00:08:35;;;;;;;21.60;15.18;;;14.40;92.40;;;;;;5076087;28;20036;-76
2021/08/31 00:11:01;;;;;;;19.98;15.38;;;14.30;92.70;;;;;;5075870;28;20028;-76
2021/08/31 00:13:26;;;;;;;21.35;15.52;;;14.30;92.90;;;;;;5075857;28;20099;-77
2021/08/31 00:15:52;;;;;;;21.83;15.90;;;14.20;93.30;;;;;;5075918;28;20028;-76
2021/08/31 00:18:17;;;;;;;22.30;15.13;;;14.20;93.20;;;;;;5075699;28;20024;-76
2021/08/31 00:20:43;;;;;;;24.58;16.52;;;14.20;93.10;;;;;;5075615;28;20170;-76
2021/08/31 00:23:09;;;;;;;24.00;17.27;;;14.10;93.30;;;;;;5075787;28;20029;-76
2021/08/31 00:25:34;;;;;;;23.63;16.77;;;14.00;93.90;;;;;;5075709;28;20511;-76
2021/08/31 00:28:00;;;;;;;25.73;16.77;;;13.90;94.30;;;;;;5075556;28;20021;-76
2021/08/31 00:30:25;;;;;;;21.38;16.58;;;13.90;94.60;;;;;;5075766;28;20032;-76
2021/08/31 00:32:51;;;;;;;19.88;15.10;;;13.90;94.50;;;;;;5096608;28;20094;-75
2021/08/31 00:35:16;;;;;;;20.60;14.43;;;14.00;94.00;;;;;;5086253;28;20400;-76
2021/08/31 00:37:42;;;;;;;23.15;15.32;;;14.00;93.80;;;;;;5076840;28;20095;-76
2021/08/31 00:40:09;;;;;;;21.85;15.23;;;14.10;93.70;;;;;;5075678;28;20034;-75
2021/08/31 00:42:34;;;;;;;23.92;15.88;;;14.10;93.50;;;;;;5075330;28;20025;-76
2021/08/31 00:45:01;;;;;;;23.95;14.77;;;14.10;93.10;;;;;;5074250;28;20029;-76
2021/08/31 00:47:26;;;;;;;22.77;16.48;;;14.10;93.30;;;;;;5075260;28;20473;-76
2021/08/31 00:49:52;;;;;;;25.60;15.15;;;14.10;93.00;;;;;;5075271;28;20032;-75
2021/08/31 00:52:17;;;;;;;18.50;12.90;;;14.20;93.20;;;;;;5075091;28;20052;-75
2021/08/31 00:54:43;;;;;;;21.23;14.55;;;14.20;93.10;;;;;;5075149;28;20027;-76
2021/08/31 00:57:08;;;;;;;18.25;13.73;;;14.20;93.10;;;;;;5075019;28;20032;-76
2021/08/31 00:59:34;;;;;;;18.55;14.30;;;14.30;93.90;;;;;;5075018;28;20027;-76
2021/08/31 01:02:00;;;;;;;15.73;12.27;;;14.30;93.00;;;;;;5075114;28;20033;-76
2021/08/31 01:04:27;;;;;;;18.73;13.05;;;14.30;93.00;;;;;;5074498;28;20294;-76
2021/08/31 01:06:53;;;;;;;23.73;14.98;;;14.40;92.80;;;;;;5074946;28;20031;-76
2021/08/31 01:09:27;;;;;;;18.17;13.50;;;14.40;92.60;;;;;;5075005;28;20104;-76
2021/08/31 01:11:54;;;;;;;21.85;15.70;;;14.30;92.80;;;;;;5074646;28;20033;-75
2021/08/31 01:14:20;;;;;;;20.15;15.68;;;14.30;92.90;;;;;;5074736;28;20025;-76
2021/08/31 01:16:47;;;;;;;23.15;16.75;;;14.30;93.30;;;;;;5074593;28;20063;-76
2021/08/31 01:19:13;;;;;;;22.60;15.90;;;14.20;93.20;;;;;;5074757;28;20372;-75
2021/08/31 01:21:38;;;;;;;25.52;16.35;;;14.10;93.70;;;;;;5074497;28;20500;-75
2021/08/31 01:24:05;;;;;;;24.17;16.90;;;14.00;93.80;;;;;;5074616;28;20033;-76
2021/08/31 01:26:31;;;;;;;26.58;16.77;;;14.00;94.10;;;;;;5074435;28;20022;-75
2021/08/31 01:28:58;;;;;;;24.38;17.67;;;14.00;94.30;;;;;;5074454;28;20537;-75
2021/08/31 01:31:24;;;;;;;23.75;16.75;;;13.90;94.40;;;;;;5074227;28;20111;-76
2021/08/31 01:33:49;;;;;;;24.30;16.95;;;13.90;94.50;;;;;;5074403;28;20063;-76
2021/08/31 01:36:22;;;;;;;24.13;15.27;;;13.90;94.80;;;;;;5074230;28;20028;-74
2021/08/31 01:38:53;;;;;;;21.63;14.90;;;13.90;94.80;;;;;;5074346;28;20048;-75
2021/08/31 01:41:19;;;;;;;22.23;16.25;;;13.90;94.80;;;;;;5074163;28;20024;-75
2021/08/31 01:43:45;;;;;;;20.17;14.82;;;13.90;94.70;;;;;;5073942;28;20059;-74
2021/08/31 01:46:12;;;;;;;23.73;16.52;;;13.90;94.70;;;;;;5073953;28;20077;-75
2021/08/31 01:48:37;;;;;;;17.45;13.93;;;13.90;94.70;;;;;;5073834;28;20127;-74
2021/08/31 01:51:05;;;;;;;22.15;15.43;;;13.90;94.80;;;;;;5073626;28;20552;-74
2021/08/31 01:53:31;;;;;;;21.08;14.20;;;14.00;94.60;;;;;;5073811;28;20036;-74
2021/08/31 01:55:56;;;;;;;22.90;16.48;;;14.00;94.70;;;;;;5073855;28;20017;-74
2021/08/31 01:58:22;;;;;;;23.17;15.60;;;14.00;94.50;;;;;;5073630;28;20025;-74
2021/08/31 02:00:48;;;;;;;25.00;16.65;;;14.00;94.70;;;;;;5073672;28;20026;-74
2021/08/31 02:03:13;;;;;;;21.02;15.63;;;13.90;94.80;;;;;;5073629;28;20388;-75
2021/08/31 02:05:39;;;;;;;21.85;15.55;;;14.00;94.90;;;;;;5073692;28;20036;-74
2021/08/31 02:08:05;;;;;;;20.98;14.85;;;14.00;94.90;;;;;;5073492;28;20016;-74
2021/08/31 02:10:30;;;;;;;19.30;14.07;;;14.00;94.80;;;;;;5073531;28;20518;-74
2021/08/31 02:12:56;;;;;;;22.48;15.52;;;14.00;94.90;;;;;;5073547;28;20039;-74
2021/08/31 02:15:22;;;;;;;20.80;15.32;;;14.00;94.50;;;;;;5073540;28;20070;-74
2021/08/31 02:17:47;;;;;;;20.60;14.00;;;14.00;94.40;;;;;;5073257;28;20464;-74
2021/08/31 02:20:13;;;;;;;20.10;14.65;;;14.00;94.70;;;;;;5073385;28;20028;-75
2021/08/31 02:22:40;;;;;;;16.65;12.45;;;14.00;94.60;;;;;;5073224;28;20025;-75
2021/08/31 02:25:06;;;;;;;16.52;12.27;;;14.10;94.70;;;;;;5073333;28;20020;-76
2021/08/31 02:27:31;;;;;;;22.40;13.68;;;14.10;94.70;;;;;;5073349;28;20354;-75
2021/08/31 02:29:57;;;;;;;16.95;12.23;;;14.20;94.50;;;;;;5073313;28;20074;-75
2021/08/31 02:32:22;;;;;;;14.90;10.93;;;14.20;94.40;;;;;;5073298;28;20033;-75
2021/08/31 02:34:48;;;;;;;18.60;13.00;;;14.30;94.30;;;;;;5073131;28;20070;-75
2021/08/31 02:37:14;;;;;;;14.48;11.13;;;14.30;94.00;;;;;;5071982;28;20488;-74
2021/08/31 02:39:39;;;;;;;15.65;11.68;;;14.30;93.90;;;;;;5073117;28;20025;-75
2021/08/31 02:42:05;;;;;;;17.17;12.60;;;14.30;93.80;;;;;;5073107;28;20610;-74
2021/08/31 02:44:31;;;;;;;17.38;12.05;;;14.30;93.70;;;;;;5073096;28;20020;-74
2021/08/31 02:46:56;;;;;;;17.95;12.65;;;14.30;93.40;;;;;;5073149;28;20024;-75
2021/08/31 02:49:22;;;;;;;18.55;13.20;;;14.30;93.50;;;;;;5073154;28;20062;-75
2021/08/31 02:51:47;;;;;;;17.25;11.85;;;14.20;93.30;;;;;;5072806;28;20102;-74
2021/08/31 02:54:13;;;;;;;14.65;10.88;;;14.30;93.60;;;;;;5073051;28;20028;-74
2021/08/31 02:56:38;;;;;;;17.20;11.75;;;14.30;93.60;;;;;;5071683;28;20046;-75
2021/08/31 02:59:05;;;;;;;15.40;12.55;;;14.30;93.50;;;;;;5072574;28;20091;-74
2021/08/31 03:01:33;;;;;;;19.45;12.73;;;14.30;93.50;;;;;;5072842;28;20028;-74
2021/08/31 03:04:00;;;;;;;18.67;13.40;;;14.30;93.30;;;;;;5072923;28;20112;-74
2021/08/31 03:06:27;;;;;;;14.38;10.57;;;14.30;93.00;;;;;;5072825;28;20017;-75
2021/08/31 03:08:53;;;;;;;17.05;12.88;;;14.20;93.20;;;;;;5073058;28;20051;-75
2021/08/31 03:11:19;;;;;;;15.90;12.35;;;14.30;93.40;;;;;;5073152;28;20028;-74
2021/08/31 03:13:44;;;;;;;18.83;13.57;;;14.30;93.40;;;;;;5072763;28;20025;-74
2021/08/31 03:16:10;;;;;;;17.00;11.80;;;14.30;93.20;;;;;;5073020;28;20412;-74
2021/08/31 03:18:36;;;;;;;21.00;13.68;;;14.20;93.00;;;;;;5072633;28;20111;-75
2021/08/31 03:21:01;;;;;;;23.15;14.18;;;14.20;93.20;;;;;;5072673;28;20052;-75
2021/08/31 03:23:27;;;;;;;16.58;12.63;;;14.10;93.60;;;;;;5072701;28;20025;-75
2021/08/31 03:25:52;;;;;;;20.58;14.45;;;14.10;93.90;;;;;;5072669;28;20029;-75
2021/08/31 03:28:18;;;;;;;21.58;14.18;;;14.00;94.00;;;;;;5072614;28;20017;-74
2021/08/31 03:30:43;;;;;;;21.25;13.85;;;14.00;94.20;;;;;;5072695;28;20035;-75
2021/08/31 03:33:09;;;;;;;19.83;14.55;;;14.00;94.20;;;;;;5072634;28;20036;-75
2021/08/31 03:35:35;;;;;;;17.00;12.02;;;14.00;94.10;;;;;;5072460;28;20054;-75
2021/08/31 03:38:00;;;;;;;17.48;12.55;;;14.00;94.20;;;;;;5072584;28;20070;-75
2021/08/31 03:40:26;;;;;;;18.85;14.75;;;14.00;94.10;;;;;;5072668;28;20027;-74
2021/08/31 03:42:51;;;;;;;17.10;11.90;;;14.10;94.10;;;;;;5071365;28;20476;-75
2021/08/31 03:45:17;;;;;;;22.88;15.05;;;14.10;94.00;;;;;;5078011;28;20039;-75
2021/08/31 03:47:43;;;;;;;20.73;14.75;;;14.10;93.40;;;;;;5097766;28;20096;-76
2021/08/31 03:50:09;;;;;;;18.85;14.20;;;14.00;93.50;;;;;;5079067;28;20025;-75
2021/08/31 03:52:35;;;;;;;20.45;15.00;;;14.00;93.40;;;;;;5073147;28;20480;-75
2021/08/31 03:55:00;;;;;;;21.85;14.77;;;14.00;93.60;;;;;;5072582;28;20059;-74
2021/08/31 03:57:26;;;;;;;19.02;13.25;;;14.00;93.60;;;;;;5072175;28;20370;-74
2021/08/31 03:59:52;;;;;;;16.13;12.20;;;14.00;93.60;;;;;;5072331;28;20032;-74
2021/08/31 04:02:18;;;;;;;20.55;14.35;;;14.00;93.60;;;;;;5071028;28;20103;-75
2021/08/31 04:04:43;;;;;;;19.92;15.00;;;14.00;93.40;;;;;;5072373;28;20443;-75
2021/08/31 04:07:09;;;;;;;17.73;13.60;;;14.00;93.60;;;;;;5072322;28;20024;-74
2021/08/31 04:09:34;;;;;;;21.45;15.27;;;14.00;93.80;;;;;;5072205;28;20029;-74
2021/08/31 04:12:00;;;;;;;19.45;13.38;;;14.00;93.70;;;;;;5074851;28;20040;-75
2021/08/31 04:14:25;;;;;;;19.08;13.98;;;13.90;93.80;;;;;;5075776;28;20028;-75
2021/08/31 04:16:51;;;;;;;20.73;14.32;;;13.90;94.00;;;;;;5075852;28;20025;-75
2021/08/31 04:19:17;;;;;;;26.50;16.00;;;14.00;93.90;;;;;;5075446;28;20029;-75
2021/08/31 04:21:42;;;;;;;23.42;15.98;;;13.90;94.10;;;;;;5076786;28;20027;-75
2021/08/31 04:24:08;;;;;;;20.27;15.32;;;13.80;94.30;;;;;;5075789;28;20027;-75
2021/08/31 04:26:34;;;;;;;23.95;16.30;;;13.90;94.50;;;;;;5075557;28;20035;-75
2021/08/31 04:28:59;;;;;;;24.17;16.25;;;13.80;94.40;;;;;;5075524;28;20021;-75
2021/08/31 04:31:25;;;;;;;22.85;16.52;;;13.80;94.30;;;;;;5075341;28;20052;-75
2021/08/31 04:33:51;;;;;;;22.98;16.35;;;13.80;94.50;;;;;;5074103;28;20128;-74
2021/08/31 04:36:18;;;;;;;24.27;16.10;;;13.80;94.60;;;;;;5075379;28;20043;-75
2021/08/31 04:38:44;;;;;;;25.05;16.48;;;13.70;95.00;;;;;;5075319;28;20082;-74
2021/08/31 04:41:10;;;;;;;24.55;16.80;;;13.70;95.10;;;;;;5075420;28;20033;-75
2021/08/31 04:43:36;;;;;;;26.60;17.73;;;13.70;95.30;;;;;;5075323;28;20027;-75
2021/08/31 04:46:02;;;;;;;26.15;17.75;;;13.70;95.40;;;;;;5076438;28;20095;-74
2021/08/31 04:48:27;;;;;;;25.40;17.23;;;13.60;95.40;;;;;;5079315;28;20128;-74
2021/08/31 04:50:53;;;;;;;26.98;18.92;;;13.70;95.50;;;;;;5080332;28;20435;-74
2021/08/31 04:53:20;;;;;;;26.13;17.98;;;13.80;95.20;;;;;;5076982;28;20067;-74
2021/08/31 04:55:46;;;;;;;26.20;18.42;;;13.70;95.40;;;;;;5075005;28;20017;-75
2021/08/31 04:58:11;;;;;;;28.77;19.55;;;13.70;95.40;;;;;;5075122;28;20028;-74
2021/08/31 05:00:37;;;;;;;28.67;18.85;;;13.70;95.60;;;;;;5075099;28;20032;-75
2021/08/31 05:03:03;;;;;;;26.33;17.70;;;13.70;95.60;;;;;;5074784;28;20415;-75
2021/08/31 05:05:28;;;;;;;29.65;18.60;;;13.70;95.60;;;;;;5074968;28;20473;-74
2021/08/31 05:07:54;;;;;;;27.55;18.23;;;13.80;95.50;;;;;;5076280;28;20028;-74
2021/08/31 05:10:19;;;;;;;27.52;17.92;;;13.80;95.40;;;;;;5078166;28;20082;-73
2021/08/31 05:12:45;;;;;;;25.98;17.35;;;13.90;95.30;;;;;;5076742;28;20032;-73
2021/08/31 05:15:10;;;;;;;24.20;17.17;;;13.80;95.10;;;;;;5074604;28;20358;-74
2021/08/31 05:17:37;;;;;;;28.77;19.77;;;13.90;95.30;;;;;;5074617;28;20034;-74
2021/08/31 05:20:04;;;;;;;31.55;19.92;;;13.90;95.00;;;;;;5074771;28;20039;-73
2021/08/31 05:22:30;;;;;;;20.25;15.10;;;13.90;94.70;;;;;;5074438;28;20067;-73
2021/08/31 05:24:58;;;;;;;24.73;17.58;;;14.00;94.80;;;;;;5074862;28;20021;-74
2021/08/31 05:27:24;;;;;;;27.08;18.48;;;14.00;94.80;;;;;;5074435;28;20021;-74
2021/08/31 05:29:50;;;;;;;26.50;17.65;;;14.00;94.80;;;;;;5075028;28;20370;-73
2021/08/31 05:32:16;;;;;;;27.52;18.83;;;14.00;94.60;;;;;;5074669;28;20611;-74
2021/08/31 05:34:42;;;;;;;26.95;19.35;;;14.10;94.60;;;;;;5074588;28;20056;-74
2021/08/31 05:37:07;;;;;;;28.67;19.35;;;14.10;94.30;;;;;;5074448;28;20051;-74
2021/08/31 05:39:33;;;;;;;27.48;19.02;;;14.00;94.30;;;;;;5074081;28;20024;-74
2021/08/31 05:42:07;;;;;;;26.95;17.95;;;13.90;94.70;;;;;;5080554;28;20520;-75
2021/08/31 05:44:35;;;;;;;31.58;21.05;;;13.90;94.80;;;;;;5074423;28;20029;-75
2021/08/31 05:47:02;;;;;;;32.83;21.00;;;13.90;94.70;;;;;;5073974;28;20052;-75
2021/08/31 05:49:30;;;;;;;30.73;21.92;;;13.90;94.80;;;;;;5073789;28;20067;-75
2021/08/31 05:51:56;;;;;;;31.90;21.08;;;13.90;95.10;;;;;;5073669;28;20066;-75
2021/08/31 05:54:21;;;;;;;32.10;22.33;;;13.90;95.20;;;;;;5073631;28;20028;-75
2021/08/31 05:56:48;;;;;;;32.63;21.20;;;13.90;95.00;;;;;;5073708;28;20025;-75
2021/08/31 05:59:14;;;;;;;32.30;19.98;;;13.90;95.00;;;;;;5073740;28;20021;-75
2021/08/31 06:01:40;;;;;;;27.23;17.42;;;13.90;95.10;;;;;;5073712;28;20054;-75
2021/08/31 06:04:06;;;;;;;34.38;20.63;;;14.00;95.20;;;;;;5073871;28;20099;-75
2021/08/31 06:06:32;;;;;;;28.98;20.40;;;14.10;95.10;;;;;;5073708;28;20151;-75
2021/08/31 06:08:57;;;;;;;33.88;20.77;;;14.10;94.90;;;;;;5073674;28;20035;-74
2021/08/31 06:11:23;;;;;;;29.42;20.30;;;14.00;94.70;;;;;;5073495;28;20037;-75
2021/08/31 06:13:49;;;;;;;26.55;18.50;;;14.10;94.40;;;;;;5072210;28;20105;-75
2021/08/31 06:16:14;;;;;;;27.77;20.50;;;14.10;94.50;;;;;;5074065;28;20390;-75
2021/08/31 06:18:40;;;;;;;29.10;20.33;;;14.10;94.10;;;;;;5073970;28;20033;-75
2021/08/31 06:21:06;;;;;;;23.05;16.85;;;14.10;94.10;;;;;;5073682;28;20056;-75
2021/08/31 06:23:32;;;;;;;32.88;20.50;;;14.10;94.20;;;;;;5073259;28;20461;-75
2021/08/31 06:25:57;;;;;;;34.53;19.95;;;14.00;94.30;;;;;;5073376;28;20099;-75
2021/08/31 06:28:23;;;;;;;28.48;18.58;;;14.00;94.30;;;;;;5073373;28;20025;-75
2021/08/31 06:30:48;;;;;;;25.13;18.48;;;14.00;94.40;;;;;;5074650;28;20099;-76
2021/08/31 06:33:14;;;;;;;28.33;17.88;;;14.00;94.40;;;;;;5072941;28;20392;-74
2021/08/31 06:35:40;;;;;;;28.02;19.25;;;14.10;94.40;;;;;;5074047;28;20020;-74
2021/08/31 06:38:05;;;;;;;26.42;19.60;;;14.10;94.10;;;;;;5073935;28;20504;-75
2021/08/31 06:40:31;;;;;;;28.52;18.38;;;14.00;93.90;;;;;;5073829;28;20099;-76
2021/08/31 06:42:57;;;;;;;30.23;18.85;;;13.90;94.20;;;;;;5073477;28;20025;-75
2021/08/31 06:45:22;;;;;;;23.88;17.73;;;13.90;94.20;;;;;;5073697;28;20442;-75
2021/08/31 06:47:48;;;;;;;25.92;17.58;;;14.00;94.30;;;;;;5073506;28;20063;-74
2021/08/31 06:50:16;;;;;;;23.15;16.00;;;14.00;94.30;;;;;;5073367;28;20407;-75
2021/08/31 06:52:46;;;;;;;23.50;16.33;;;14.10;94.30;;;;;;5073422;28;20032;-75
2021/08/31 06:55:14;;;;;;;24.77;17.88;;;14.10;94.20;;;;;;5071320;28;20076;-75
2021/08/31 06:57:39;;;;;;;23.02;16.40;;;14.20;93.70;;;;;;5072436;28;20494;-75
2021/08/31 07:00:07;;;;;;;22.92;15.80;;;14.30;93.70;;;;;;5093664;28;20006;-75
2021/08/31 07:02:32;;;;;;;18.17;14.13;;;14.30;93.30;;;;;;5085400;28;20028;-74
2021/08/31 07:04:58;;;;;;;21.23;16.13;;;14.30;93.30;;;;;;5073950;28;20021;-75
2021/08/31 07:07:24;;;;;;;24.83;17.75;;;14.30;93.00;;;;;;5072761;28;20499;-75
2021/08/31 07:09:49;;;;;;;24.83;17.63;;;14.40;92.70;;;;;;5072589;28;20039;-75
2021/08/31 07:12:15;;;;;;;25.23;17.10;;;14.30;92.70;;;;;;5072923;28;20032;-76
2021/08/31 07:14:40;;;;;;;28.33;18.95;;;14.30;92.80;;;;;;5071751;28;20032;-76
2021/08/31 07:17:06;;;;;;;34.95;21.75;;;14.20;92.90;;;;;;5072760;28;20027;-76
2021/08/31 07:19:32;;;;;;;28.17;19.27;;;14.10;93.60;;;;;;5071419;28;20411;-75
2021/08/31 07:21:57;;;;;;;31.55;21.00;;;14.00;94.10;;;;;;5072835;28;20029;-76
2021/08/31 07:24:23;;;;;;;29.48;21.95;;;14.00;94.50;;;;;;5072870;28;20494;-76
2021/08/31 07:26:49;;;;;;;22.08;16.15;;;14.00;95.00;;;;;;5072643;28;20028;-76
2021/08/31 07:29:15;;;;;;;30.30;21.30;;;14.00;95.00;;;;;;5071028;28;20031;-75
2021/08/31 07:31:41;;;;;;;27.38;19.00;;;14.00;95.00;;;;;;5072209;28;20024;-75
2021/08/31 07:34:07;;;;;;;29.35;20.10;;;14.00;95.00;;;;;;5071383;28;20032;-75
2021/08/31 07:36:33;;;;;;;29.45;19.98;;;14.10;94.90;;;;;;5072531;28;20025;-76
2021/08/31 07:38:58;;;;;;;29.77;21.35;;;14.10;94.60;;;;;;5072559;28;20029;-73
2021/08/31 07:41:24;;;;;;;28.35;20.73;;;14.10;93.70;;;;;;5072144;28;20035;-74
2021/08/31 07:43:51;;;;;;;26.27;17.17;;;14.20;94.10;;;;;;5072670;28;20024;-74
2021/08/31 07:46:17;;;;;;;32.63;21.55;;;14.20;94.10;;;;;;5075727;28;20020;-73
2021/08/31 07:48:44;;;;;;;32.50;20.95;;;14.20;93.40;;;;;;5076452;28;20040;-76
2021/08/31 07:51:10;;;;;;;36.13;17.05;;;14.30;93.80;;;;;;5076238;28;20123;-77
2021/08/31 07:53:36;;;;;;;30.23;17.50;;;14.50;95.00;;;;;;5076755;28;20037;-76
2021/08/31 07:56:02;;;;;;;24.35;16.30;;;14.80;95.20;;;;;;5076769;28;20021;-78
2021/08/31 07:58:27;;;;;;;23.08;16.20;;;15.20;94.00;;;;;;5074844;28;20021;-76
2021/08/31 08:00:53;;;;;;;21.55;14.38;;;15.40;92.40;;;;;;5076100;28;20024;-76
2021/08/31 08:03:19;;;;;;;21.80;15.85;;;15.60;91.30;;;;;;5074712;28;20028;-75
2021/08/31 08:05:44;;;;;;;20.45;14.90;;;15.80;89.50;;;;;;5076416;28;20450;-76
2021/08/31 08:08:10;;;;;;;22.85;15.82;;;16.00;88.00;;;;;;5075887;28;20056;-76
2021/08/31 08:10:35;;;;;;;16.10;11.27;;;16.10;86.30;;;;;;5076256;28;20029;-79
2021/08/31 08:13:01;;;;;;;14.80;12.05;;;16.20;86.40;;;;;;5076085;28;20036;-79
2021/08/31 08:15:26;;;;;;;16.27;12.93;;;16.30;85.80;;;;;;5076270;28;20492;-78
2021/08/31 08:17:52;;;;;;;15.73;11.95;;;16.40;85.40;;;;;;5076202;28;20103;-78
2021/08/31 08:20:18;;;;;;;15.57;11.80;;;16.40;85.00;;;;;;5076064;28;20013;-78
2021/08/31 08:22:44;;;;;;;17.70;12.38;;;16.50;84.50;;;;;;5074022;28;20024;-78
2021/08/31 08:25:11;;;;;;;15.57;11.82;;;16.70;84.10;;;;;;5076132;28;20021;-78
2021/08/31 08:27:37;;;;;;;12.80;8.98;;;16.90;83.10;;;;;;5076198;28;20107;-80
2021/08/31 08:30:03;;;;;;;11.40;9.00;;;17.00;82.70;;;;;;5075997;28;20440;-79
2021/08/31 08:32:29;;;;;;;12.13;9.77;;;17.20;81.60;;;;;;5075541;28;20484;-78
2021/08/31 08:34:54;;;;;;;10.95;8.38;;;17.30;80.30;;;;;;5076649;28;20078;-79
2021/08/31 08:37:20;;;;;;;9.20;7.55;;;17.40;79.40;;;;;;5077052;28;20025;-78
2021/08/31 08:39:46;;;;;;;10.68;6.72;;;17.60;79.30;;;;;;5078073;28;20020;-78
2021/08/31 08:42:12;;;;;;;8.75;7.30;;;17.80;78.80;;;;;;5078546;28;20048;-78
2021/08/31 08:44:38;;;;;;;8.88;6.63;;;18.00;77.80;;;;;;5096005;28;20017;-78
2021/08/31 08:47:04;;;;;;;9.57;7.95;;;18.20;76.70;;;;;;5097339;28;20080;-79
2021/08/31 08:49:30;;;;;;;10.50;7.50;;;18.30;75.80;;;;;;5097014;28;20024;-80
2021/08/31 08:51:57;;;;;;;9.98;7.03;;;18.30;75.40;;;;;;5095860;28;20045;-79
2021/08/31 08:54:23;;;;;;;9.50;6.63;;;18.20;75.40;;;;;;5095573;28;20377;-79
2021/08/31 08:56:51;;;;;;;9.82;6.70;;;18.10;76.20;;;;;;5093116;28;20017;-79
2021/08/31 08:59:18;;;;;;;9.73;7.57;;;18.00;77.00;;;;;;5082715;28;20476;-79
2021/08/31 09:01:47;;;;;;;10.57;6.85;;;17.90;78.10;;;;;;5075930;28;20056;-78
2021/08/31 09:04:18;;;;;;;7.80;6.30;;;17.90;78.40;;;;;;5078598;28;20065;-79
2021/08/31 09:06:47;;;;;;;8.90;7.65;;;17.90;78.40;;;;;;5076185;28;20028;-79
2021/08/31 09:09:13;;;;;;;7.20;5.93;;;18.00;78.30;;;;;;5075517;28;20029;-78
2021/08/31 09:11:46;;;;;;;11.13;7.30;;;18.20;77.40;;;;;;5075239;28;20033;-78
2021/08/31 09:14:16;;;;;;;7.93;6.30;;;18.40;78.20;;;;;;5075614;28;20024;-79
2021/08/31 09:16:43;;;;;;;7.15;5.57;;;18.70;76.80;;;;;;5075039;28;20036;-79
2021/08/31 09:19:08;;;;;;;4.95;4.35;;;19.00;75.40;;;;;;5075031;28;20028;-80
2021/08/31 09:21:35;;;;;;;7.00;4.57;;;19.30;74.10;;;;;;5076876;28;20031;-79
2021/08/31 09:24:01;;;;;;;5.72;4.45;;;19.50;72.10;;;;;;5078846;28;20017;-78
2021/08/31 09:26:44;;;;;;;5.88;4.70;;;19.60;72.30;;;;;;5074929;28;20064;-78
2021/08/31 09:29:22;;;;;;;6.43;5.10;;;19.60;70.20;;;;;;5074925;28;20028;-78
2021/08/31 09:31:56;;;;;;;5.75;5.15;;;19.30;69.50;;;;;;5074702;28;20094;-77
2021/08/31 09:34:39;;;;;;;7.07;5.53;;;18.90;71.30;;;;;;5073098;28;20035;-78
2021/08/31 09:37:34;;;;;;;8.10;5.70;;;18.70;72.90;;;;;;5074474;28;20028;-79
2021/08/31 09:40:00;;;;;;;7.05;5.25;;;18.60;74.00;;;;;;5072988;28;20488;-78
2021/08/31 09:42:25;;;;;;;7.68;4.93;;;18.90;74.70;;;;;;5074520;28;20017;-78
2021/08/31 09:45:06;;;;;;;7.78;4.97;;;19.10;73.50;;;;;;5074071;28;20032;-79
2021/08/31 09:47:36;;;;;;;4.35;3.50;;;19.30;71.60;;;;;;5074156;28;20051;-80
2021/08/31 09:50:03;;;;;;;5.25;3.65;;;19.40;71.30;;;;;;5073977;28;20080;-80
2021/08/31 09:52:29;;;;;;;4.57;3.80;;;19.30;69.60;;;;;;5073850;28;20039;-80
2021/08/31 09:54:55;;;;;;;5.55;4.43;;;19.20;70.00;;;;;;5073948;28;20048;-80
2021/08/31 09:57:37;;;;;;;6.35;4.65;;;19.20;70.00;;;;;;5073731;28;20078;-78
2021/08/31 10:00:12;;;;;;;4.38;3.85;;;19.20;70.40;;;;;;5073792;28;20051;-78
2021/08/31 10:02:40;;;;;;;;;;;19.10;71.00;;;;;;5074159;28;20062;-79
2021/08/31 10:05:06;;;;;;;4.97;3.70;;;19.00;71.40;;;;;;5073603;28;19912;-78
2021/08/31 10:07:32;;;;;;;6.93;4.55;;;19.10;72.10;;;;;;5073700;28;20030;-78
2021/08/31 10:10:00;;;;;;;4.10;3.47;;;19.20;71.70;;;;;;5073154;28;20484;-79
2021/08/31 10:12:26;;;;;;;4.60;3.85;;;19.30;70.10;;;;;;5075382;28;20028;-78
2021/08/31 10:14:55;;;;;;;5.97;4.40;;;19.30;70.60;;;;;;5074737;28;20056;-79
2021/08/31 10:17:24;;;;;;;7.55;4.45;;;19.50;68.90;;;;;;5073443;28;20492;-79
2021/08/31 10:19:52;;;;;;;5.53;3.83;;;19.70;69.30;;;;;;5073637;28;20073;-78
2021/08/31 10:22:19;;;;;;;5.32;4.50;;;19.60;68.20;;;;;;5073417;28;20092;-80
2021/08/31 10:24:45;;;;;;;5.45;4.30;;;19.50;66.70;;;;;;5073454;28;20032;-80
2021/08/31 10:27:30;;;;;;;7.28;3.80;;;19.50;68.30;;;;;;5073029;28;20013;-79
2021/08/31 10:30:20;;;;;;;8.73;6.35;;;19.70;68.50;;;;;;5073158;28;20032;-78
2021/08/31 10:32:46;;;;;;;5.53;4.80;;;20.00;67.90;;;;;;5072917;28;20035;-78
2021/08/31 10:35:36;;;;;;;4.97;3.80;;;20.20;67.10;;;;;;5073136;28;20099;-79
2021/08/31 10:38:07;;;;;;;4.95;3.90;;;20.20;64.40;;;;;;5073259;28;20071;-78
2021/08/31 10:40:34;;;;;;;5.53;3.65;;;20.30;64.90;;;;;;5071832;28;20515;-79
2021/08/31 10:43:04;;;;;;;7.15;4.50;;;20.40;64.80;;;;;;5076018;28;20024;-78
2021/08/31 10:45:36;;;;;;;5.82;5.00;;;20.40;65.30;;;;;;5078501;28;20074;-78
2021/08/31 10:48:20;;;;;;;7.93;4.60;;;20.20;63.60;;;;;;5077691;28;20021;-79
2021/08/31 10:50:49;;;;;;;6.85;4.35;;;20.20;64.20;;;;;;5073510;28;20128;-78
2021/08/31 10:53:42;;;;;;;7.13;4.25;;;20.40;65.40;;;;;;5072789;28;20064;-78
2021/08/31 10:56:25;;;;;;;7.07;4.63;;;20.60;64.00;;;;;;5072944;28;20024;-77
2021/08/31 10:58:52;;;;;;;4.95;4.07;;;20.90;63.60;;;;;;5072723;28;20024;-77
2021/08/31 11:01:35;;;;;;;6.35;4.32;;;21.10;62.40;;;;;;5072657;28;20071;-77
2021/08/31 11:04:00;;;;;;;5.93;3.85;;;21.50;61.30;;;;;;5072820;28;20029;-75
2021/08/31 11:06:27;;;;;;;4.60;3.42;;;21.80;59.20;;;;;;5072479;28;20021;-76
2021/08/31 11:09:14;;;;;;;7.75;3.92;;;22.00;58.40;;;;;;5072899;28;20024;-76
2021/08/31 11:11:41;;;;;;;4.32;3.38;;;22.30;59.20;;;;;;5072580;28;20039;-76
2021/08/31 11:14:07;;;;;;;4.20;3.58;;;22.20;55.20;;;;;;5073332;28;20028;-78
2021/08/31 11:16:37;;;;;;;6.43;3.45;;;21.80;54.00;;;;;;5073615;28;20029;-77
2021/08/31 11:19:05;;;;;;;4.20;3.70;;;22.00;56.40;;;;;;5071525;28;20020;-76
2021/08/31 11:21:43;;;;;;;5.70;3.60;;;22.30;57.50;;;;;;5076305;28;20134;-76
2021/08/31 11:24:09;;;;;;;8.27;3.63;;;22.50;56.70;;;;;;5076879;28;20031;-77
2021/08/31 11:26:34;;;;;;;4.32;3.70;;;22.80;54.70;;;;;;5076608;28;20021;-77
2021/08/31 11:29:11;;;;;;;4.75;3.63;;;23.00;54.70;;;;;;5076566;28;20024;-77
2021/08/31 11:31:38;;;;;;;6.07;3.50;;;23.10;54.70;;;;;;5076747;28;20031;-77
2021/08/31 11:34:10;;;;;;;4.07;3.17;;;23.20;53.60;;;;;;5076989;28;20024;-78
2021/08/31 11:36:37;;;;;;;6.30;3.63;;;23.10;52.40;;;;;;5076756;28;20032;-77
2021/08/31 11:39:06;;;;;;;5.30;3.10;;;23.00;52.90;;;;;;5076799;28;20016;-77
2021/08/31 11:41:37;;;;;;;9.73;4.30;;;22.70;54.10;;;;;;5077049;28;20020;-77
2021/08/31 11:44:10;;;;;;;6.97;3.85;;;22.20;54.90;;;;;;5076263;28;20040;-77
2021/08/31 11:46:50;;;;;;;5.65;4.28;;;21.60;56.60;;;;;;5076476;28;20029;-79
2021/08/31 11:49:34;;;;;;;4.82;4.30;;;20.60;60.80;;;;;;5076911;28;20025;-77
2021/08/31 11:52:15;;;;;;;6.43;4.22;;;20.20;62.50;;;;;;5076921;28;20083;-77
2021/08/31 11:54:43;;;;;;;5.32;3.80;;;20.10;63.30;;;;;;5078885;28;20029;-77
2021/08/31 11:57:10;;;;;;;4.88;4.10;;;20.20;64.80;;;;;;5077730;28;20392;-78
2021/08/31 11:59:50;;;;;;;5.78;5.03;;;20.50;65.00;;;;;;5076491;28;20070;-78
2021/08/31 12:02:21;;;;;;;8.32;4.88;;;20.60;62.20;;;;;;5078146;28;20150;-78
2021/08/31 12:04:56;;;;;;;9.07;5.03;;;20.60;62.90;;;;;;5076797;28;20087;-77
2021/08/31 12:07:33;;;;;;;6.45;4.20;;;20.70;62.40;;;;;;5076841;28;20039;-78
2021/08/31 12:10:05;;;;;;;5.15;3.97;;;21.40;63.00;;;;;;5076864;28;20029;-78
2021/08/31 12:12:31;;;;;;;4.65;3.35;;;22.10;58.50;;;;;;5076452;28;20779;-79
2021/08/31 12:14:57;;;;;;;6.13;3.25;;;22.60;54.80;;;;;;5077113;28;20028;-78
2021/08/31 12:17:37;;;;;;;4.80;3.53;;;22.70;53.00;;;;;;5077267;28;20075;-78
2021/08/31 12:20:10;;;;;;;5.07;3.60;;;22.80;54.80;;;;;;5077464;28;20103;-78
2021/08/31 12:23:03;;;;;;;3.83;3.17;;;22.70;55.10;;;;;;5077043;28;20016;-78
2021/08/31 12:25:46;;;;;;;4.90;3.67;;;22.60;55.30;;;;;;5077800;28;20043;-78
2021/08/31 12:28:13;;;;;;;5.60;3.65;;;22.30;55.80;;;;;;5075696;28;20027;-79
2021/08/31 12:30:41;;;;;;;4.15;3.50;;;22.00;56.10;;;;;;5076432;28;20024;-77
2021/08/31 12:33:09;;;;;;;4.85;3.90;;;21.80;56.90;;;;;;5076111;28;20024;-78
2021/08/31 12:35:40;;;;;;;7.40;4.07;;;21.50;58.00;;;;;;5076485;28;20023;-79